createdAt,value
2018-05-29T00:00:53.472Z,20.15
2018-05-29T00:02:28.594Z,20.13
2018-05-29T00:04:03.666Z,20.15
2018-05-29T00:05:38.762Z,20.13
2018-05-29T00:07:14.622Z,20.10
2018-05-29T00:08:50.493Z,20.07
2018-05-29T00:10:25.554Z,20.05
2018-05-29T00:12:00.657Z,20.05
2018-05-29T00:13:35.756Z,20.01
2018-05-29T00:15:10.804Z,20.01
2018-05-29T00:16:46.010Z,20.02
2018-05-29T00:18:21.119Z,20.00
2018-05-29T00:19:56.171Z,19.99
2018-05-29T00:21:31.999Z,19.95
2018-05-29T00:23:07.091Z,19.94
2018-05-29T00:24:42.179Z,19.89
2018-05-29T00:26:17.996Z,19.92
2018-05-29T00:27:53.099Z,19.93
2018-05-29T00:29:28.159Z,19.98
2018-05-29T00:31:03.212Z,19.98
2018-05-29T00:32:39.073Z,19.92
2018-05-29T00:34:14.163Z,19.89
2018-05-29T00:35:49.243Z,19.88
2018-05-29T00:37:24.303Z,19.88
2018-05-29T00:38:59.350Z,19.86
2018-05-29T00:40:34.440Z,19.79
2018-05-29T00:42:09.513Z,19.80
2018-05-29T00:43:44.605Z,19.73
2018-05-29T00:45:19.676Z,19.76
2018-05-29T00:46:55.558Z,19.75
2018-05-29T00:48:30.626Z,19.70
2018-05-29T00:50:05.685Z,19.79
2018-05-29T00:51:40.749Z,19.70
2018-05-29T00:53:15.823Z,19.68
2018-05-29T00:55:08.560Z,19.66
2018-05-29T00:56:43.631Z,19.63
2018-05-29T00:58:18.718Z,19.58
2018-05-29T00:59:53.779Z,19.56
2018-05-29T01:01:29.637Z,19.57
2018-05-29T01:03:04.710Z,19.55
2018-05-29T01:04:39.789Z,19.55
2018-05-29T01:06:14.898Z,19.58
2018-05-29T01:07:49.979Z,19.64
2018-05-29T01:09:25.066Z,19.56
2018-05-29T01:11:00.150Z,19.57
2018-05-29T01:12:35.280Z,19.59
2018-05-29T01:14:10.278Z,19.51
2018-05-29T01:15:45.358Z,19.57
2018-05-29T01:17:20.411Z,19.41
2018-05-29T01:18:56.232Z,19.53
2018-05-29T01:20:31.327Z,19.50
2018-05-29T01:22:06.376Z,19.48
2018-05-29T01:23:41.455Z,19.50
2018-05-29T01:25:17.305Z,19.48
2018-05-29T01:26:52.421Z,19.49
2018-05-29T01:28:28.253Z,19.46
2018-05-29T01:30:03.318Z,19.45
2018-05-29T01:31:38.393Z,19.44
2018-05-29T01:33:13.465Z,19.47
2018-05-29T01:34:48.547Z,19.47
2018-05-29T01:36:23.653Z,19.47
2018-05-29T01:37:58.703Z,19.42
2018-05-29T01:39:34.174Z,19.39
2018-05-29T01:41:09.987Z,19.40
2018-05-29T01:42:45.092Z,19.43
2018-05-29T01:44:20.153Z,19.38
2018-05-29T01:45:55.212Z,19.36
2018-05-29T01:47:30.314Z,19.31
2018-05-29T01:49:05.364Z,19.26
2018-05-29T01:50:41.236Z,19.25
2018-05-29T01:52:16.301Z,19.28
2018-05-29T01:53:51.380Z,19.28
2018-05-29T01:55:26.454Z,19.24
2018-05-29T01:57:01.533Z,19.24
2018-05-29T01:58:37.079Z,19.22
2018-05-29T02:00:12.921Z,19.21
2018-05-29T02:01:49.518Z,19.17
2018-05-29T02:05:37.426Z,19.09
2018-05-29T02:07:13.265Z,19.03
2018-05-29T02:08:49.094Z,19.05
2018-05-29T02:10:24.205Z,19.05
2018-05-29T02:11:59.327Z,19.04
2018-05-29T02:13:34.397Z,19.08
2018-05-29T02:15:10.254Z,19.06
2018-05-29T02:16:46.091Z,19.02
2018-05-29T02:18:21.213Z,19.02
2018-05-29T02:19:56.292Z,18.95
2018-05-29T02:21:31.356Z,18.92
2018-05-29T02:23:06.475Z,18.86
2018-05-29T02:24:41.546Z,18.85
2018-05-29T02:26:16.615Z,18.85
2018-05-29T02:27:51.675Z,18.88
2018-05-29T02:29:27.549Z,18.86
2018-05-29T02:31:03.436Z,18.85
2018-05-29T02:32:38.534Z,18.80
2018-05-29T02:34:13.603Z,18.73
2018-05-29T02:35:48.678Z,18.75
2018-05-29T02:37:23.772Z,18.73
2018-05-29T02:38:58.851Z,18.71
2018-05-29T02:40:33.918Z,18.69
2018-05-29T02:42:08.991Z,18.71
2018-05-29T02:43:44.854Z,18.64
2018-05-29T02:45:19.917Z,18.64
2018-05-29T02:46:54.967Z,18.60
2018-05-29T02:48:30.042Z,18.60
2018-05-29T02:50:05.146Z,18.61
2018-05-29T02:51:40.231Z,18.55
2018-05-29T02:53:15.276Z,18.57
2018-05-29T02:54:50.390Z,18.55
2018-05-29T02:56:25.495Z,18.50
2018-05-29T02:58:00.577Z,18.49
2018-05-29T02:59:35.658Z,18.53
2018-05-29T03:07:47.895Z,18.39
2018-05-29T03:09:22.952Z,18.31
2018-05-29T03:10:58.068Z,18.21
2018-05-29T03:12:33.170Z,18.22
2018-05-29T03:14:08.282Z,18.16
2018-05-29T03:15:43.351Z,18.06
2018-05-29T03:17:18.468Z,18.07
2018-05-29T03:18:53.551Z,18.02
2018-05-29T03:20:28.632Z,18.11
2018-05-29T03:22:03.742Z,18.19
2018-05-29T03:23:39.591Z,18.14
2018-05-29T03:25:15.408Z,18.18
2018-05-29T03:26:50.471Z,18.17
2018-05-29T03:28:25.612Z,18.17
2018-05-29T03:30:00.670Z,18.25
2018-05-29T03:31:35.742Z,18.30
2018-05-29T03:33:11.583Z,18.29
2018-05-29T03:34:47.459Z,18.30
2018-05-29T03:36:22.529Z,18.27
2018-05-29T03:37:57.697Z,18.37
2018-05-29T03:39:33.869Z,18.36
2018-05-29T03:41:08.961Z,18.41
2018-05-29T03:42:44.075Z,18.49
2018-05-29T03:44:19.124Z,18.42
2018-05-29T03:45:54.193Z,18.41
2018-05-29T03:47:29.292Z,18.36
2018-05-29T03:49:05.127Z,18.43
2018-05-29T03:50:40.997Z,18.49
2018-05-29T03:52:16.058Z,18.59
2018-05-29T03:53:51.150Z,18.59
2018-05-29T03:55:26.213Z,18.70
2018-05-29T03:57:01.294Z,18.70
2018-05-29T03:58:37.158Z,18.73
2018-05-29T04:00:12.242Z,18.76
2018-05-29T04:01:47.330Z,18.85
2018-05-29T04:03:22.402Z,18.96
2018-05-29T04:04:57.509Z,18.97
2018-05-29T04:06:32.624Z,19.03
2018-05-29T04:08:07.746Z,18.94
2018-05-29T04:09:42.809Z,19.13
2018-05-29T04:11:17.909Z,19.55
2018-05-29T04:12:52.955Z,20.65
2018-05-29T04:14:28.078Z,21.44
2018-05-29T04:16:04.883Z,22.42
2018-05-29T04:17:39.960Z,23.08
2018-05-29T04:19:15.046Z,23.29
2018-05-29T04:20:50.152Z,23.75
2018-05-29T04:22:25.214Z,24.14
2018-05-29T04:24:01.052Z,24.44
2018-05-29T04:25:36.127Z,24.67
2018-05-29T04:27:11.231Z,24.64
2018-05-29T04:28:46.301Z,24.04
2018-05-29T04:30:21.395Z,24.27
2018-05-29T04:31:56.478Z,24.51
2018-05-29T04:33:34.947Z,24.95
2018-05-29T04:35:10.810Z,24.68
2018-05-29T04:36:45.882Z,24.46
2018-05-29T04:38:21.749Z,24.31
2018-05-29T04:39:56.834Z,24.11
2018-05-29T04:41:31.895Z,23.92
2018-05-29T04:43:07.740Z,23.68
2018-05-29T04:44:43.612Z,23.48
2018-05-29T04:46:18.683Z,23.31
2018-05-29T04:47:54.891Z,23.13
2018-05-29T04:49:31.754Z,22.86
2018-05-29T04:51:07.594Z,22.86
2018-05-29T04:52:43.446Z,22.92
2018-05-29T04:54:19.319Z,23.13
2018-05-29T04:55:54.431Z,23.15
2018-05-29T04:57:29.599Z,23.13
2018-05-29T04:59:04.635Z,22.93
2018-05-29T05:00:39.754Z,22.86
2018-05-29T05:02:14.931Z,22.96
2018-05-29T05:03:50.046Z,22.90
2018-05-29T05:05:25.126Z,22.81
2018-05-29T05:07:00.215Z,22.76
2018-05-29T05:08:35.286Z,22.75
2018-05-29T05:10:10.432Z,22.81
2018-05-29T05:11:45.557Z,22.78
2018-05-29T05:13:20.698Z,22.71
2018-05-29T05:15:12.618Z,22.69
2018-05-29T05:16:47.702Z,22.60
2018-05-29T05:18:29.507Z,22.70
2018-05-29T05:20:05.359Z,22.74
2018-05-29T05:21:41.464Z,22.70
2018-05-29T05:23:16.583Z,22.53
2018-05-29T05:24:51.676Z,22.58
2018-05-29T05:26:27.139Z,22.55
2018-05-29T05:28:02.477Z,22.52
2018-05-29T05:29:38.402Z,22.53
2018-05-29T05:31:13.720Z,22.52
2018-05-29T05:32:48.870Z,22.55
2018-05-29T05:34:23.965Z,22.61
2018-05-29T05:35:59.436Z,22.65
2018-05-29T05:37:36.194Z,22.68
2018-05-29T05:39:11.374Z,22.67
2018-05-29T05:40:46.717Z,22.70
2018-05-29T05:42:22.131Z,22.68
2018-05-29T05:45:36.386Z,22.73
2018-05-29T05:47:12.157Z,22.74
2018-05-29T05:48:47.286Z,22.82
2018-05-29T05:50:26.411Z,22.87
2018-05-29T06:04:37.995Z,23.10
2018-05-29T06:06:13.965Z,23.14
2018-05-29T06:07:49.090Z,23.23
2018-05-29T06:09:24.427Z,23.26
2018-05-29T06:10:59.533Z,23.27
2018-05-29T06:12:34.615Z,23.25
2018-05-29T06:14:09.933Z,23.26
2018-05-29T06:15:45.370Z,23.32
2018-05-29T06:17:20.682Z,23.40
2018-05-29T06:18:55.984Z,23.41
2018-05-29T06:20:32.090Z,23.38
2018-05-29T06:22:07.167Z,23.43
2018-05-29T06:23:43.364Z,23.49
2018-05-29T06:25:18.679Z,23.58
2018-05-29T06:26:53.760Z,23.64
2018-05-29T06:28:28.870Z,23.64
2018-05-29T06:30:04.024Z,23.57
2018-05-29T06:31:39.115Z,23.61
2018-05-29T06:33:14.218Z,23.59
2018-05-29T06:34:50.126Z,23.66
2018-05-29T06:36:25.728Z,23.76
2018-05-29T06:38:01.791Z,23.78
2018-05-29T06:39:37.300Z,23.85
2018-05-29T06:41:12.470Z,23.96
2018-05-29T06:42:48.415Z,24.05
2018-05-29T06:44:23.487Z,24.08
2018-05-29T06:45:58.615Z,24.13
2018-05-29T06:47:37.191Z,24.16
2018-05-29T06:49:12.511Z,24.17
2018-05-29T06:50:47.999Z,24.24
2018-05-29T06:52:23.148Z,24.26
2018-05-29T06:53:59.054Z,24.21
2018-05-29T06:55:35.015Z,24.22
2018-05-29T06:57:10.319Z,24.28
2018-05-29T06:58:46.559Z,24.29
2018-05-29T07:00:22.157Z,24.35
2018-05-29T07:01:57.637Z,24.43
2018-05-29T07:03:32.963Z,24.45
2018-05-29T07:05:08.101Z,24.48
2018-05-29T07:06:43.532Z,24.53
2018-05-29T07:08:18.820Z,24.56
2018-05-29T07:09:54.530Z,24.56
2018-05-29T07:11:30.194Z,24.60
2018-05-29T07:13:05.490Z,24.56
2018-05-29T07:15:04.308Z,24.55
2018-05-29T07:16:39.663Z,24.65
2018-05-29T07:18:18.458Z,24.71
2018-05-29T07:19:54.386Z,24.73
2018-05-29T07:21:29.971Z,24.78
2018-05-29T07:23:05.271Z,24.79
2018-05-29T07:24:40.739Z,24.85
2018-05-29T07:26:17.479Z,24.94
2018-05-29T07:27:52.901Z,24.96
2018-05-29T07:29:28.429Z,25.03
2018-05-29T07:31:03.518Z,25.06
2018-05-29T07:32:38.961Z,25.00
2018-05-29T07:34:16.010Z,25.03
2018-05-29T07:35:51.134Z,25.10
2018-05-29T07:37:27.587Z,25.14
2018-05-29T07:39:03.649Z,25.20
2018-05-29T07:40:39.208Z,25.21
2018-05-29T07:42:14.751Z,25.33
2018-05-29T07:43:50.689Z,25.21
2018-05-29T07:45:26.198Z,25.27
2018-05-29T07:47:01.514Z,25.41
2018-05-29T07:50:17.864Z,25.36
2018-05-29T07:54:06.702Z,25.54
2018-05-29T07:55:41.827Z,25.54
2018-05-29T07:57:17.359Z,25.56
2018-05-29T07:58:52.563Z,25.57
2018-05-29T08:00:27.956Z,25.60
2018-05-29T08:02:03.269Z,25.70
2018-05-29T08:03:38.615Z,25.74
2018-05-29T08:05:15.346Z,25.80
2018-05-29T08:06:51.380Z,25.91
2018-05-29T08:08:27.435Z,25.95
2018-05-29T08:10:06.095Z,25.92
2018-05-29T08:14:59.747Z,26.09
2018-05-29T08:16:34.868Z,26.17
2018-05-29T08:18:11.129Z,26.17
2018-05-29T08:21:27.061Z,26.08
2018-05-29T08:26:23.763Z,26.36
2018-05-29T08:29:40.359Z,26.24
2018-05-29T08:31:15.710Z,26.37
2018-05-29T08:36:12.258Z,26.61
2018-05-29T08:37:48.062Z,26.61
2018-05-29T08:39:23.478Z,26.48
2018-05-29T08:40:58.850Z,26.47
2018-05-29T08:42:35.367Z,26.42
2018-05-29T08:44:10.708Z,26.60
2018-05-29T08:45:45.871Z,26.71
2018-05-29T08:47:21.889Z,26.77
2018-05-29T08:56:26.009Z,27.02
2018-05-29T08:58:03.656Z,27.00
2018-05-29T08:59:38.934Z,26.89
2018-05-29T09:01:14.895Z,26.79
2018-05-29T09:02:50.245Z,26.86
2018-05-29T09:04:25.661Z,26.85
2018-05-29T09:06:01.240Z,26.90
2018-05-29T09:07:36.567Z,27.01
2018-05-29T09:09:12.105Z,27.11
2018-05-29T09:10:47.414Z,27.03
2018-05-29T09:12:23.524Z,27.15
2018-05-29T09:13:59.776Z,27.23
2018-05-29T09:15:35.116Z,27.15
2018-05-29T09:17:10.584Z,27.09
2018-05-29T09:18:46.823Z,27.11
2018-05-29T09:20:22.931Z,27.16
2018-05-29T09:21:59.259Z,27.14
2018-05-29T09:23:37.882Z,27.10
2018-05-29T09:25:14.877Z,27.13
2018-05-29T09:26:50.494Z,27.27
2018-05-29T09:28:25.957Z,27.32
2018-05-29T09:31:40.559Z,27.57
2018-05-29T09:36:36.048Z,27.39
2018-05-29T09:38:11.410Z,27.54
2018-05-29T09:39:47.350Z,27.66
2018-05-29T09:41:24.108Z,27.69
2018-05-29T09:42:59.535Z,27.67
2018-05-29T09:44:38.152Z,27.74
2018-05-29T09:46:15.025Z,27.71
2018-05-29T09:47:51.581Z,27.79
2018-05-29T09:49:26.916Z,27.69
2018-05-29T09:51:06.662Z,27.72
2018-05-29T09:57:06.948Z,27.82
2018-05-29T09:58:43.137Z,27.87
2018-05-29T10:00:23.796Z,27.83
2018-05-29T10:01:58.941Z,27.90
2018-05-29T10:03:35.886Z,27.96
2018-05-29T10:05:11.978Z,27.91
2018-05-29T10:06:47.137Z,27.87
2018-05-29T10:08:22.334Z,27.89
2018-05-29T10:10:00.848Z,27.82
2018-05-29T10:13:16.922Z,27.93
2018-05-29T10:16:35.138Z,28.06
2018-05-29T10:19:51.723Z,28.07
2018-05-29T10:21:27.792Z,28.06
2018-05-29T10:23:03.925Z,28.13
2018-05-29T10:24:40.920Z,28.19
2018-05-29T10:26:19.024Z,28.15
2018-05-29T10:27:57.116Z,28.11
2018-05-29T10:29:33.404Z,28.11
2018-05-29T10:31:08.817Z,28.12
2018-05-29T10:32:44.400Z,28.19
2018-05-29T10:34:19.837Z,28.16
2018-05-29T10:35:55.180Z,28.23
2018-05-29T10:37:31.018Z,28.20
2018-05-29T10:39:07.120Z,28.14
2018-05-29T10:40:42.361Z,28.02
2018-05-29T10:42:17.677Z,28.08
2018-05-29T10:43:53.194Z,28.28
2018-05-29T10:45:28.801Z,28.48
2018-05-29T10:47:04.194Z,28.54
2018-05-29T10:50:20.381Z,28.49
2018-05-29T10:53:36.153Z,28.47
2018-05-29T10:55:12.846Z,28.53
2018-05-29T10:56:48.766Z,28.54
2018-05-29T10:58:25.265Z,28.55
2018-05-29T11:00:03.051Z,28.48
2018-05-29T11:03:18.724Z,28.60
2018-05-29T11:04:54.240Z,28.66
2018-05-29T11:06:30.151Z,28.54
2018-05-29T11:08:06.762Z,28.54
2018-05-29T11:09:42.188Z,28.53
2018-05-29T11:12:56.772Z,28.64
2018-05-29T11:14:32.089Z,28.70
2018-05-29T11:16:07.830Z,28.73
2018-05-29T11:17:44.627Z,28.66
2018-05-29T11:19:20.836Z,28.72
2018-05-29T11:20:56.179Z,28.65
2018-05-29T11:22:31.484Z,28.89
2018-05-29T11:24:07.847Z,28.99
2018-05-29T11:27:25.278Z,29.02
2018-05-29T11:29:00.831Z,29.03
2018-05-29T11:30:36.006Z,28.90
2018-05-29T11:32:11.455Z,28.92
2018-05-29T11:33:48.006Z,28.83
2018-05-29T11:39:47.979Z,28.87
2018-05-29T11:43:02.351Z,29.04
2018-05-29T11:44:38.948Z,29.02
2018-05-29T11:52:18.675Z,28.90
2018-05-29T11:53:53.956Z,28.93
2018-05-29T11:55:31.254Z,29.22
2018-05-29T11:57:07.129Z,29.25
2018-05-29T11:58:43.817Z,29.37
2018-05-29T12:00:19.904Z,29.34
2018-05-29T12:01:55.215Z,29.30
2018-05-29T12:03:30.303Z,29.36
2018-05-29T12:05:09.580Z,29.40
2018-05-29T12:06:45.355Z,29.35
2018-05-29T12:08:20.882Z,29.34
2018-05-29T12:09:56.240Z,29.24
2018-05-29T12:11:31.591Z,29.26
2018-05-29T12:13:07.422Z,29.19
2018-05-29T12:14:43.339Z,29.33
2018-05-29T12:16:22.875Z,29.41
2018-05-29T12:18:01.019Z,29.45
2018-05-29T12:19:36.226Z,29.43
2018-05-29T12:21:12.202Z,29.44
2018-05-29T12:22:49.802Z,29.61
2018-05-29T12:24:32.212Z,29.70
2018-05-29T12:26:08.118Z,29.58
2018-05-29T12:27:44.678Z,29.69
2018-05-29T12:29:20.169Z,29.75
2018-05-29T12:30:55.792Z,29.77
2018-05-29T12:32:32.980Z,29.67
2018-05-29T12:34:08.871Z,29.73
2018-05-29T12:35:44.204Z,29.54
2018-05-29T12:37:19.530Z,29.62
2018-05-29T12:38:54.602Z,29.79
2018-05-29T12:40:30.668Z,29.85
2018-05-29T12:42:05.804Z,29.87
2018-05-29T12:43:41.683Z,29.79
2018-05-29T12:45:17.587Z,29.76
2018-05-29T12:46:53.314Z,29.67
2018-05-29T12:48:28.440Z,29.61
2018-05-29T12:50:03.917Z,29.66
2018-05-29T12:51:39.047Z,29.62
2018-05-29T12:53:14.351Z,29.80
2018-05-29T12:54:51.401Z,29.87
2018-05-29T12:56:27.156Z,29.91
2018-05-29T12:58:03.270Z,29.88
2018-05-29T12:59:38.388Z,29.78
2018-05-29T13:01:14.756Z,29.84
2018-05-29T13:02:49.902Z,29.85
2018-05-29T13:04:24.964Z,29.76
2018-05-29T13:06:00.027Z,29.85
2018-05-29T13:07:35.904Z,29.98
2018-05-29T13:09:10.985Z,30.03
2018-05-29T13:10:46.063Z,30.09
2018-05-29T13:12:21.115Z,30.13
2018-05-29T13:13:56.253Z,30.06
2018-05-29T13:15:31.370Z,30.13
2018-05-29T13:17:06.458Z,30.05
2018-05-29T13:18:42.290Z,30.13
2018-05-29T13:20:17.381Z,30.14
2018-05-29T13:21:52.470Z,30.05
2018-05-29T13:23:29.131Z,30.21
2018-05-29T13:25:04.211Z,30.31
2018-05-29T13:26:39.525Z,30.27
2018-05-29T13:28:14.727Z,30.27
2018-05-29T13:29:50.004Z,30.36
2018-05-29T13:31:25.852Z,30.32
2018-05-29T13:33:01.083Z,30.45
2018-05-29T13:34:36.452Z,30.56
2018-05-29T13:36:12.335Z,30.55
2018-05-29T13:37:47.835Z,30.66
2018-05-29T13:39:23.299Z,30.68
2018-05-29T13:41:00.939Z,30.57
2018-05-29T13:42:37.187Z,30.45
2018-05-29T13:44:12.529Z,30.41
2018-05-29T13:45:47.643Z,30.36
2018-05-29T13:47:22.906Z,30.35
2018-05-29T13:48:58.044Z,30.41
2018-05-29T13:50:33.127Z,30.24
2018-05-29T13:52:08.284Z,30.35
2018-05-29T13:53:43.576Z,30.41
2018-05-29T13:55:18.703Z,30.30
2018-05-29T13:56:54.006Z,30.23
2018-05-29T13:58:29.152Z,30.19
2018-05-29T14:00:04.962Z,30.10
2018-05-29T14:01:40.061Z,30.12
2018-05-29T14:03:15.618Z,30.06
2018-05-29T14:04:51.462Z,30.03
2018-05-29T14:06:26.789Z,29.85
2018-05-29T14:08:02.929Z,29.84
2018-05-29T14:09:40.357Z,29.82
2018-05-29T14:11:15.415Z,29.80
2018-05-29T14:12:51.346Z,29.80
2018-05-29T14:14:27.375Z,29.71
2018-05-29T14:16:03.051Z,29.78
2018-05-29T14:17:38.152Z,29.72
2018-05-29T14:19:13.273Z,29.67
2018-05-29T14:20:48.398Z,29.56
2018-05-29T14:22:24.582Z,29.48
2018-05-29T14:24:00.162Z,29.41
2018-05-29T14:25:36.431Z,29.44
2018-05-29T14:27:11.712Z,29.51
2018-05-29T14:28:47.023Z,29.51
2018-05-29T14:30:22.151Z,29.51
2018-05-29T14:31:57.243Z,29.45
2018-05-29T14:33:32.349Z,29.54
2018-05-29T14:35:08.227Z,29.54
2018-05-29T14:36:43.320Z,29.62
2018-05-29T14:38:18.766Z,29.62
2018-05-29T14:39:54.113Z,29.72
2018-05-29T14:41:30.096Z,29.75
2018-05-29T14:43:05.250Z,29.74
2018-05-29T14:44:40.374Z,29.78
2018-05-29T14:46:15.484Z,29.73
2018-05-29T14:47:50.574Z,29.83
2018-05-29T14:49:25.642Z,29.91
2018-05-29T14:51:00.702Z,29.88
2018-05-29T14:52:35.846Z,30.00
2018-05-29T14:54:10.919Z,30.06
2018-05-29T14:55:46.031Z,29.93
2018-05-29T14:57:21.081Z,29.91
2018-05-29T14:58:56.211Z,29.90
2018-05-29T15:00:31.273Z,29.90
2018-05-29T15:02:07.267Z,29.88
2018-05-29T15:03:43.132Z,30.01
2018-05-29T15:05:19.741Z,30.06
2018-05-29T15:06:54.774Z,30.01
2018-05-29T15:08:29.915Z,29.93
2018-05-29T15:10:04.986Z,30.00
2018-05-29T15:11:40.069Z,29.97
2018-05-29T15:13:15.159Z,30.05
2018-05-29T15:14:50.285Z,30.11
2018-05-29T15:16:25.367Z,30.21
2018-05-29T15:18:01.230Z,30.21
2018-05-29T15:19:36.333Z,30.24
2018-05-29T15:21:11.449Z,30.28
2018-05-29T15:22:46.511Z,30.35
2018-05-29T15:24:21.634Z,30.28
2018-05-29T15:25:56.855Z,30.26
2018-05-29T15:27:31.936Z,30.29
2018-05-29T15:29:07.368Z,30.38
2018-05-29T15:30:42.479Z,30.48
2018-05-29T15:32:18.329Z,30.48
2018-05-29T15:33:53.435Z,30.46
2018-05-29T15:35:28.546Z,30.40
2018-05-29T15:37:03.636Z,30.32
2018-05-29T15:38:53.594Z,30.33
2018-05-29T15:40:29.963Z,30.42
2018-05-29T15:42:05.101Z,30.37
2018-05-29T15:43:40.142Z,30.42
2018-05-29T15:45:15.489Z,30.37
2018-05-29T15:46:50.601Z,30.50
2018-05-29T15:48:26.551Z,30.60
2018-05-29T15:50:01.620Z,30.63
2018-05-29T15:51:36.722Z,30.64
2018-05-29T15:53:11.847Z,30.73
2018-05-29T15:54:47.621Z,30.75
2018-05-29T15:56:22.717Z,30.67
2018-05-29T15:57:57.841Z,30.65
2018-05-29T15:59:33.466Z,30.57
2018-05-29T16:01:08.570Z,30.76
2018-05-29T16:02:43.635Z,30.68
2018-05-29T16:04:18.766Z,30.68
2018-05-29T16:05:53.845Z,30.69
2018-05-29T16:07:28.986Z,30.63
2018-05-29T16:09:05.393Z,30.68
2018-05-29T16:10:40.515Z,30.73
2018-05-29T16:12:15.588Z,30.69
2018-05-29T16:13:50.650Z,30.68
2018-05-29T16:15:25.772Z,30.71
2018-05-29T16:17:02.511Z,30.74
2018-05-29T16:18:37.622Z,30.71
2018-05-29T16:20:12.821Z,30.72
2018-05-29T16:21:51.904Z,30.90
2018-05-29T16:23:28.241Z,30.96
2018-05-29T16:25:03.637Z,30.87
2018-05-29T16:26:39.175Z,30.97
2018-05-29T16:28:15.886Z,31.03
2018-05-29T16:29:51.407Z,31.05
2018-05-29T16:31:27.010Z,31.03
2018-05-29T16:33:02.135Z,30.85
2018-05-29T16:34:38.043Z,30.80
2018-05-29T16:36:13.105Z,30.62
2018-05-29T16:37:48.949Z,30.50
2018-05-29T16:39:24.849Z,30.24
2018-05-29T16:41:00.266Z,30.27
2018-05-29T16:42:35.363Z,30.32
2018-05-29T16:44:11.218Z,30.43
2018-05-29T16:45:47.112Z,30.46
2018-05-29T16:47:22.194Z,30.36
2018-05-29T16:48:58.673Z,30.39
2018-05-29T16:50:33.690Z,30.38
2018-05-29T16:52:09.525Z,30.29
2018-05-29T16:53:44.605Z,30.28
2018-05-29T16:55:19.954Z,30.13
2018-05-29T16:56:55.442Z,29.89
2018-05-29T16:58:30.572Z,29.86
2018-05-29T17:00:06.428Z,29.82
2018-05-29T17:01:41.539Z,29.91
2018-05-29T17:03:16.667Z,30.04
2018-05-29T17:04:51.947Z,29.87
2018-05-29T17:06:28.056Z,29.80
2018-05-29T17:08:04.119Z,29.82
2018-05-29T17:09:39.382Z,29.83
2018-05-29T17:11:14.641Z,29.70
2018-05-29T17:12:50.728Z,29.66
2018-05-29T17:14:26.033Z,29.58
2018-05-29T17:16:01.240Z,29.47
2018-05-29T17:17:36.478Z,29.40
2018-05-29T17:19:11.586Z,29.38
2018-05-29T17:20:46.923Z,29.39
2018-05-29T17:22:22.155Z,29.21
2018-05-29T17:23:57.224Z,29.14
2018-05-29T17:25:32.320Z,29.12
2018-05-29T17:27:08.436Z,29.14
2018-05-29T17:28:44.320Z,29.18
2018-05-29T17:30:19.394Z,29.15
2018-05-29T17:31:54.517Z,29.15
2018-05-29T17:33:29.557Z,29.11
2018-05-29T17:35:04.675Z,29.06
2018-05-29T17:36:39.768Z,28.90
2018-05-29T17:38:15.049Z,28.93
2018-05-29T17:39:50.295Z,28.86
2018-05-29T17:41:26.307Z,28.82
2018-05-29T17:43:01.391Z,28.80
2018-05-29T17:44:36.733Z,28.86
2018-05-29T17:46:11.939Z,28.90
2018-05-29T17:47:47.802Z,28.82
2018-05-29T17:49:22.979Z,28.81
2018-05-29T17:50:58.292Z,28.73
2018-05-29T17:52:33.390Z,28.67
2018-05-29T17:54:09.654Z,28.71
2018-05-29T17:55:48.630Z,28.76
2018-05-29T17:57:29.079Z,28.71
2018-05-29T17:59:08.207Z,28.71
2018-05-29T18:00:47.751Z,28.70
2018-05-29T18:02:27.460Z,28.62
2018-05-29T18:04:07.082Z,28.53
2018-05-29T18:05:46.409Z,28.50
2018-05-29T18:07:23.001Z,28.40
2018-05-29T18:09:01.105Z,28.27
2018-05-29T18:10:38.740Z,28.22
2018-05-29T18:12:15.331Z,28.20
2018-05-29T18:13:51.820Z,28.22
2018-05-29T18:15:30.311Z,28.21
2018-05-29T18:17:07.491Z,28.07
2018-05-29T18:18:44.269Z,27.99
2018-05-29T18:20:19.434Z,27.91
2018-05-29T18:21:55.257Z,27.87
2018-05-29T18:23:30.362Z,27.63
2018-05-29T18:25:05.449Z,27.60
2018-05-29T18:26:40.542Z,27.52
2018-05-29T18:28:15.662Z,27.46
2018-05-29T18:29:50.774Z,27.33
2018-05-29T18:31:27.419Z,27.32
2018-05-29T18:33:03.486Z,27.16
2018-05-29T18:34:39.561Z,27.11
2018-05-29T18:36:16.737Z,27.07
2018-05-29T18:37:53.929Z,27.07
2018-05-29T18:39:33.535Z,26.98
2018-05-29T18:41:13.084Z,26.97
2018-05-29T18:42:52.567Z,26.96
2018-05-29T18:44:30.710Z,26.82
2018-05-29T18:46:09.040Z,26.66
2018-05-29T18:47:44.708Z,26.73
2018-05-29T18:49:20.246Z,26.72
2018-05-29T18:50:56.463Z,26.68
2018-05-29T18:52:32.243Z,26.75
2018-05-29T18:54:08.304Z,26.78
2018-05-29T18:55:44.150Z,26.75
2018-05-29T18:57:20.747Z,26.75
2018-05-29T18:58:56.702Z,26.82
2018-05-29T19:00:32.130Z,26.69
2018-05-29T19:02:07.259Z,26.55
2018-05-29T19:03:42.310Z,26.55
2018-05-29T19:05:17.360Z,26.47
2018-05-29T19:06:53.097Z,26.38
2018-05-29T19:08:30.704Z,26.29
2018-05-29T19:10:07.296Z,26.27
2018-05-29T19:11:44.957Z,26.22
2018-05-29T19:13:20.932Z,26.02
2018-05-29T19:14:56.220Z,25.99
2018-05-29T19:16:32.655Z,25.92
2018-05-29T19:18:08.188Z,25.87
2018-05-29T19:19:45.067Z,25.85
2018-05-29T19:21:20.603Z,25.86
2018-05-29T19:22:56.546Z,25.81
2018-05-29T19:24:33.358Z,25.82
2018-05-29T19:26:09.694Z,25.75
2018-05-29T19:27:46.641Z,25.63
2018-05-29T19:29:22.685Z,25.59
2018-05-29T19:30:58.331Z,25.47
2018-05-29T19:32:34.704Z,25.40
2018-05-29T19:34:10.782Z,25.31
2018-05-29T19:35:47.899Z,25.30
2018-05-29T19:37:25.935Z,25.35
2018-05-29T19:39:02.020Z,25.35
2018-05-29T19:40:38.261Z,25.27
2018-05-29T19:42:15.279Z,25.29
2018-05-29T19:43:51.840Z,25.27
2018-05-29T19:45:27.774Z,25.33
2018-05-29T19:47:07.778Z,25.24
2018-05-29T19:48:43.964Z,25.17
2018-05-29T19:50:20.189Z,25.18
2018-05-29T19:51:57.307Z,25.19
2018-05-29T19:53:34.213Z,25.14
2018-05-29T19:55:11.765Z,25.10
2018-05-29T19:56:48.160Z,25.05
2018-05-29T19:58:24.693Z,25.00
2018-05-29T20:00:01.731Z,24.93
2018-05-29T20:01:40.148Z,24.84
2018-05-29T20:03:17.571Z,24.81
2018-05-29T20:04:53.967Z,24.68
2018-05-29T20:06:29.265Z,24.64
2018-05-29T20:08:05.213Z,24.60
2018-05-29T20:09:41.201Z,24.63
2018-05-29T20:11:16.551Z,24.61
2018-05-29T20:12:51.638Z,24.58
2018-05-29T20:14:26.711Z,24.62
2018-05-29T20:16:01.793Z,24.59
2018-05-29T20:17:39.401Z,24.52
2018-05-29T20:19:14.475Z,24.48
2018-05-29T20:20:49.560Z,24.50
2018-05-29T20:22:25.951Z,24.45
2018-05-29T20:24:10.510Z,24.43
2018-05-29T20:25:45.825Z,24.39
2018-05-29T20:27:21.921Z,24.41
2018-05-29T20:28:56.996Z,24.43
2018-05-29T20:30:32.092Z,24.43
2018-05-29T20:32:08.898Z,24.41
2018-05-29T20:33:43.997Z,24.39
2018-05-29T20:35:19.081Z,24.39
2018-05-29T20:36:54.180Z,24.34
2018-05-29T20:38:30.021Z,24.31
2018-05-29T20:40:05.116Z,24.26
2018-05-29T20:41:40.969Z,24.27
2018-05-29T20:43:16.077Z,24.29
2018-05-29T20:44:51.178Z,24.32
2018-05-29T20:46:26.516Z,24.29
2018-05-29T20:48:01.650Z,24.27
2018-05-29T20:49:36.735Z,24.15
2018-05-29T20:51:11.839Z,24.09
2018-05-29T20:52:46.909Z,24.10
2018-05-29T20:54:22.021Z,24.07
2018-05-29T20:55:57.096Z,24.10
2018-05-29T20:57:32.165Z,24.13
2018-05-29T20:59:07.297Z,24.10
2018-05-29T21:00:43.210Z,24.07
2018-05-29T21:02:18.273Z,24.03
2018-05-29T21:03:53.404Z,23.99
2018-05-29T21:05:28.526Z,23.98
2018-05-29T21:07:03.592Z,23.92
2018-05-29T21:08:38.690Z,23.93
2018-05-29T21:10:13.815Z,23.96
2018-05-29T21:11:48.871Z,23.96
2018-05-29T21:13:23.950Z,23.95
2018-05-29T21:14:59.063Z,23.89
2018-05-29T21:16:34.134Z,23.86
2018-05-29T21:18:09.998Z,23.82
2018-05-29T21:19:45.083Z,23.78
2018-05-29T21:21:20.172Z,23.71
2018-05-29T21:22:55.295Z,23.58
2018-05-29T21:24:30.383Z,23.57
2018-05-29T21:26:05.971Z,23.59
2018-05-29T21:27:41.026Z,23.60
2018-05-29T21:29:16.093Z,23.65
2018-05-29T21:30:51.210Z,23.65
2018-05-29T21:32:26.288Z,23.66
2018-05-29T21:34:01.354Z,23.58
2018-05-29T21:35:36.421Z,23.52
2018-05-29T21:37:11.536Z,23.54
2018-05-29T21:38:46.624Z,23.49
2018-05-29T21:40:21.706Z,23.42
2018-05-29T21:41:56.798Z,23.41
2018-05-29T21:43:32.949Z,23.36
2018-05-29T21:45:08.145Z,23.33
2018-05-29T21:46:44.022Z,23.28
2018-05-29T21:50:59.671Z,23.19
2018-05-29T21:52:35.343Z,23.15
2018-05-29T21:54:10.419Z,23.09
2018-05-29T21:55:45.559Z,23.08
2018-05-29T21:57:20.629Z,23.13
2018-05-29T21:58:56.095Z,23.03